Time;durP1;ratioP1;P1;durP2;ratioP2;P2;SDS_P1;SDS_P2;PMS_P1;PMS_P2;Temp;Humidity;BMP_temperature;BMP_pressure;BME280_temperature;BME280_humidity;BME280_pressure;Samples;Min_cycle;Max_cycle;Signal;HPM_P1;HPM_P2
2022/02/06 00:01:25;;;;;;;3.47;1.00;;;;;;;-149.78;100.00;50422.56;5066527;28;20120;-62
2022/02/06 00:03:56;;;;;;;1.55;0.90;;;;;;;-149.78;100.00;50467.53;5056356;28;20041;-62
2022/02/06 00:06:22;;;;;;;4.13;0.82;;;;;;;-149.78;100.00;50459.72;5066624;28;20029;-62
2022/02/06 00:08:48;;;;;;;5.43;1.08;;;;;;;-149.78;100.00;50436.25;5060323;28;20028;-60
2022/02/06 00:11:14;;;;;;;3.50;0.95;;;;;;;-149.78;100.00;50479.28;5060949;28;20479;-59
2022/02/06 00:13:39;;;;;;;3.22;1.08;;;;;;;-149.78;100.00;50412.78;5068538;28;20039;-60
2022/02/06 00:16:05;;;;;;;6.88;1.13;;;;;;;-149.78;100.00;50424.50;5056147;28;20045;-60
2022/02/06 00:18:31;;;;;;;3.90;1.23;;;;;;;-149.78;100.00;50465.56;5066876;28;20040;-60
2022/02/06 00:21:00;;;;;;;3.47;1.10;;;;;;;-149.78;100.00;50483.19;5062742;28;20040;-60
2022/02/06 00:23:29;;;;;;;7.05;1.25;;;;;;;-149.78;100.00;50447.97;5059038;28;20049;-60
2022/02/06 00:26:02;;;;;;;7.50;1.40;;;;;;;-149.78;100.00;50410.81;5069194;28;20464;-60
2022/02/06 00:41:15;;;;;;;2.58;1.20;;;;;;;-149.78;100.00;50483.19;5052500;28;20041;-62
2022/02/06 00:43:42;;;;;;;5.50;0.88;;;;;;;-149.78;100.00;50451.88;5068218;28;20121;-62
2022/02/06 00:46:09;;;;;;;8.60;1.30;;;;;;;-149.78;100.00;50451.88;5057911;28;20079;-62
2022/02/06 00:48:41;;;;;;;2.40;0.80;;;;;;;-149.78;100.00;50467.53;5070061;28;20029;-62
2022/02/06 00:51:18;;;;;;;;;;;;;;;-149.78;100.00;50449.94;5067545;28;20480;-63
2022/02/06 00:53:44;;;;;;;6.35;0.90;;;;;;;-149.78;100.00;50440.16;5059936;28;19920;-63
2022/02/06 00:56:11;;;;;;;5.22;1.00;;;;;;;-149.78;100.00;50475.34;5072664;28;20055;-63
2022/02/06 00:58:37;;;;;;;10.25;1.33;;;;;;;-149.78;100.00;50420.59;5061955;28;20078;-63
2022/02/06 01:01:04;;;;;;;6.22;0.95;;;;;;;-149.78;100.00;50487.09;5065606;28;20082;-63
2022/02/06 01:03:30;;;;;;;5.25;2.42;;;;;;;-149.78;100.00;50463.63;5070425;28;20048;-63
2022/02/06 01:05:56;;;;;;;2.47;0.88;;;;;;;-149.78;100.00;50434.28;5059210;28;20037;-63
2022/02/06 01:08:22;;;;;;;2.92;1.10;;;;;;;-149.78;100.00;50428.41;5071292;28;20033;-63
2022/02/06 01:10:48;;;;;;;3.13;1.00;;;;;;;-149.78;100.00;50455.81;5063022;28;20067;-63
2022/02/06 01:13:28;;;;;;;2.83;0.80;;;;;;;-149.78;100.00;50440.16;5063925;28;20047;-63
2022/02/06 01:15:59;;;;;;;3.47;1.27;;;;;;;-149.78;100.00;50479.28;5072198;28;20086;-63
2022/02/06 01:18:40;;;;;;;4.90;0.90;;;;;;;-149.78;100.00;50424.50;5061188;28;20044;-63
2022/02/06 01:21:16;;;;;;;4.80;1.10;;;;;;;-149.78;100.00;50455.81;5064737;28;20123;-60
2022/02/06 01:26:36;;;;;;;5.43;1.48;;;;;;;-149.78;100.00;50438.19;5042493;28;20369;-65
2022/02/06 01:29:57;;;;;;;4.25;1.00;;;;;;;-149.78;100.00;50436.25;5065078;28;20456;-60
2022/02/06 01:32:03;;;;;;;3.88;0.90;;;;;;;-149.78;100.00;50494.91;5038441;28;20132;-60
2022/02/06 01:35:10;;;;;;;6.78;0.90;;;;;;;-149.78;100.00;50475.34;5069579;28;20032;-60
2022/02/06 01:42:22;;;;;;;8.38;2.08;;;;;;;-149.78;100.00;50467.53;5042676;28;20024;-62
2022/02/06 02:06:42;;;;;;;4.65;1.35;;;;;;;-149.78;100.00;50436.25;5041961;28;20044;-63
2022/02/06 02:12:13;;;;;;;5.82;0.82;;;;;;;-149.78;100.00;50430.38;5071148;28;20040;-60
2022/02/06 02:48:05;;;;;;;2.35;0.90;;;;;;;-149.78;100.00;50440.16;5070299;28;20476;-63
2022/02/06 02:50:33;;;;;;;5.72;0.90;;;;;;;-149.78;100.00;50506.66;5050906;28;20044;-63
2022/02/06 02:53:14;;;;;;;3.55;0.80;;;;;;;-149.78;100.00;50447.97;5054101;28;20024;-61
2022/02/06 02:58:43;;;;;;;4.25;1.10;;;;;;;-149.78;100.00;50453.84;5047470;28;20462;-64
2022/02/06 03:03:37;;;;;;;6.80;1.30;;;;;;;-149.78;100.00;50447.97;5068636;28;20460;-63
2022/02/06 03:06:05;;;;;;;4.38;1.30;;;;;;;-149.78;100.00;50436.25;5051465;28;20037;-63
2022/02/06 03:08:34;;;;;;;6.55;1.30;;;;;;;-149.78;100.00;50463.63;5055246;28;20044;-63
2022/02/06 03:11:03;;;;;;;5.22;1.20;;;;;;;-149.78;100.00;50459.72;5052198;28;20041;-64
2022/02/06 03:13:49;;;;;;;3.45;0.90;;;;;;;-149.78;100.00;50459.72;5053768;28;20036;-63
2022/02/06 03:18:51;;;;;;;3.97;1.10;;;;;;;-149.78;100.00;50475.34;5064925;28;20025;-63
2022/02/06 03:21:20;;;;;;;5.40;0.90;;;;;;;-149.78;100.00;50440.16;5066233;28;20032;-61
2022/02/06 03:23:51;;;;;;;6.10;2.05;;;;;;;-149.78;100.00;50428.41;5054274;28;20064;-61
2022/02/06 03:26:21;;;;;;;5.78;1.60;;;;;;;-149.78;100.00;50455.81;5041218;28;20040;-61
2022/02/06 03:28:47;;;;;;;6.15;1.33;;;;;;;-149.78;100.00;50447.97;5060757;28;20089;-61
2022/02/06 03:31:13;;;;;;;5.25;1.00;;;;;;;-149.78;100.00;50447.97;5064143;28;20134;-63
2022/02/06 03:33:39;;;;;;;4.88;1.00;;;;;;;-149.78;100.00;50455.81;5057912;28;20049;-63
2022/02/06 03:36:05;;;;;;;3.92;0.93;;;;;;;-149.78;100.00;50440.16;5055402;28;20048;-64
2022/02/06 03:38:30;;;;;;;3.08;0.90;;;;;;;-149.78;100.00;50451.88;5057949;28;20044;-64
2022/02/06 03:41:02;;;;;;;7.80;1.10;;;;;;;-149.78;100.00;50440.16;5049290;28;20033;-61
2022/02/06 03:46:08;;;;;;;3.17;0.90;;;;;;;-149.78;100.00;50428.41;5054497;28;20040;-61
2022/02/06 03:51:20;;;;;;;4.05;1.00;;;;;;;-149.78;100.00;50459.72;5064850;28;20110;-64
2022/02/06 03:53:49;;;;;;;4.15;1.13;;;;;;;-149.78;100.00;50444.06;5056596;28;20480;-64
2022/02/06 03:56:15;;;;;;;7.60;1.15;;;;;;;-149.78;100.00;50426.47;5041219;28;20387;-64
2022/02/06 03:58:41;;;;;;;5.00;1.52;;;;;;;-149.78;100.00;50440.16;5056977;28;20033;-61
2022/02/06 04:01:08;;;;;;;6.70;1.55;;;;;;;-149.78;100.00;50412.78;5064400;28;20036;-61
2022/02/06 04:03:34;;;;;;;6.00;1.80;;;;;;;-149.78;100.00;50471.44;5058296;28;20040;-61
2022/02/06 04:06:00;;;;;;;4.78;1.73;;;;;;;-149.78;100.00;50436.25;5069156;28;20040;-61
2022/02/06 04:08:28;;;;;;;4.63;1.33;;;;;;;-149.78;100.00;50477.31;5051017;28;20034;-61
2022/02/06 04:10:54;;;;;;;5.15;1.40;;;;;;;-149.78;100.00;50447.97;5049818;28;20041;-61
2022/02/06 04:13:23;;;;;;;3.47;1.50;;;;;;;-149.78;100.00;50463.63;5052681;28;20052;-61
2022/02/06 04:16:01;;;;;;;5.75;1.15;;;;;;;-149.78;100.00;50459.72;5053292;28;20032;-64
2022/02/06 04:20:53;;;;;;;5.95;1.20;;;;;;;-149.78;100.00;50440.16;5055475;28;20032;-63
2022/02/06 04:23:18;;;;;;;7.00;0.90;;;;;;;-149.78;100.00;50447.97;5069317;28;20496;-64
2022/02/06 04:25:44;;;;;;;5.07;0.90;;;;;;;-149.78;100.00;50428.41;5060436;28;20124;-64
2022/02/06 04:28:10;;;;;;;2.65;0.82;;;;;;;-149.78;100.00;50494.91;5053123;28;20040;-64
2022/02/06 04:30:35;;;;;;;3.17;0.70;;;;;;;-149.78;100.00;50440.16;5062046;28;20041;-64
2022/02/06 04:33:05;;;;;;;3.03;0.60;;;;;;;-149.78;100.00;50457.75;5061494;28;20041;-64
2022/02/06 04:35:35;;;;;;;0.82;0.50;;;;;;;-149.78;100.00;50467.53;5070474;28;20116;-64
2022/02/06 04:43:14;;;;;;;1.15;0.50;;;;;;;-149.78;100.00;50473.41;5065440;28;20037;-63
2022/02/06 04:48:51;;;;;;;0.43;0.20;;;;;;;-149.78;100.00;50432.31;5031024;28;20037;-61
2022/02/06 04:54:21;;;;;;;0.10;0.10;;;;;;;-149.78;100.00;50479.28;5072435;28;20119;-64
2022/02/06 05:28:30;;;;;;;0.38;0.17;;;;;;;-149.78;100.00;50465.56;5044000;28;20043;-64
2022/02/06 05:33:31;;;;;;;0.10;0.10;;;;;;;-149.78;100.00;50479.28;5069924;28;20033;-61
2022/02/06 05:35:56;;;;;;;0.10;0.10;;;;;;;-149.78;100.00;50498.81;5058925;28;20050;-64
2022/02/06 05:38:22;;;;;;;0.38;0.20;;;;;;;-149.78;100.00;50481.22;5069453;28;20033;-63
2022/02/06 05:40:48;;;;;;;0.17;0.17;;;;;;;-149.78;100.00;50491.00;5063953;28;20037;-64
2022/02/06 05:43:14;;;;;;;0.40;0.22;;;;;;;-149.78;100.00;50483.19;5063670;28;20048;-63
2022/02/06 05:45:40;;;;;;;0.20;0.20;;;;;;;-149.78;100.00;50479.28;5071110;28;20041;-63
2022/02/06 05:48:05;;;;;;;0.20;0.20;;;;;;;-149.78;100.00;50506.66;5058787;28;20131;-64
2022/02/06 05:50:31;;;;;;;0.98;0.20;;;;;;;-149.78;100.00;50483.19;5070132;28;20024;-63
2022/02/06 05:52:58;;;;;;;0.40;0.30;;;;;;;-149.78;100.00;50471.44;5065573;28;20040;-64
2022/02/06 05:55:24;;;;;;;1.85;0.30;;;;;;;-149.78;100.00;50487.09;5068585;28;20115;-64
2022/02/06 05:57:49;;;;;;;0.75;0.20;;;;;;;-149.78;100.00;50504.69;5058612;28;20103;-64
2022/02/06 06:00:15;;;;;;;0.20;0.10;;;;;;;-149.78;100.00;50492.97;5071259;28;20051;-63
2022/02/06 06:02:41;;;;;;;0.50;0.20;;;;;;;-149.78;100.00;50487.09;5062627;28;20028;-63
2022/02/06 06:05:08;;;;;;;1.85;0.32;;;;;;;-149.78;100.00;50459.72;5062439;28;20048;-63
2022/02/06 06:07:33;;;;;;;0.30;0.13;;;;;;;-149.78;100.00;50487.09;5069825;28;20151;-63
2022/02/06 06:09:59;;;;;;;0.20;0.20;;;;;;;-149.78;100.00;50502.75;5058347;28;20124;-64
2022/02/06 06:12:25;;;;;;;0.63;0.22;;;;;;;-149.78;100.00;50491.00;5069758;28;20484;-63
2022/02/06 06:14:50;;;;;;;0.10;0.10;;;;;;;-149.78;100.00;50494.91;5063828;28;20409;-63
2022/02/06 06:17:16;;;;;;;0.15;0.15;;;;;;;-149.78;100.00;50491.00;5062471;28;20041;-61
2022/02/06 06:19:47;;;;;;;3.67;0.85;;;;;;;-149.78;100.00;50502.75;5061531;28;20037;-61
2022/02/06 06:22:13;;;;;;;1.38;0.40;;;;;;;-149.78;100.00;50498.81;5041063;28;20038;-61
2022/02/06 06:24:45;;;;;;;2.33;0.50;;;;;;;-149.78;100.00;50494.91;5067260;28;20052;-61
2022/02/06 06:27:11;;;;;;;1.67;0.80;;;;;;;-149.78;100.00;50500.78;5066247;28;20067;-61
2022/02/06 06:29:36;;;;;;;2.15;0.70;;;;;;;-149.78;100.00;50469.50;5059560;28;20508;-61
2022/02/06 06:32:04;;;;;;;3.30;0.70;;;;;;;-149.78;100.00;50459.72;5070923;28;20538;-61
2022/02/06 06:34:30;;;;;;;2.40;0.70;;;;;;;-149.78;100.00;50447.97;5060543;28;20412;-61
2022/02/06 06:36:55;;;;;;;2.92;0.70;;;;;;;-149.78;100.00;50473.41;5060193;28;20036;-61
2022/02/06 06:39:33;;;;;;;2.13;0.75;;;;;;;-149.78;100.00;50506.66;5067530;28;20127;-61
2022/02/06 06:41:59;;;;;;;6.28;1.00;;;;;;;-149.78;100.00;50483.19;5057762;28;20468;-60
2022/02/06 06:44:24;;;;;;;4.28;0.93;;;;;;;-149.78;100.00;50487.09;5067213;28;20039;-63
2022/02/06 06:46:51;;;;;;;2.00;0.70;;;;;;;-149.78;100.00;50506.66;5063039;28;20036;-64
2022/02/06 06:49:16;;;;;;;2.58;0.68;;;;;;;-149.78;100.00;50487.09;5061843;28;20063;-61
2022/02/06 06:51:42;;;;;;;4.03;1.10;;;;;;;-149.78;100.00;50487.09;5070297;28;20447;-61
2022/02/06 06:54:13;;;;;;;2.72;0.98;;;;;;;-149.78;100.00;50496.88;5056283;28;20391;-63
2022/02/06 06:56:50;;;;;;;0.60;0.57;;;;;;;-149.78;100.00;50469.50;5066882;28;20032;-64
2022/02/06 07:00:22;;;;;;;1.25;0.60;;;;;;;-149.78;100.00;50473.41;5066437;28;20484;-63
2022/02/06 07:02:17;;;;;;;3.58;0.80;;;;;;;-149.78;100.00;50514.47;5048794;28;20522;-63
2022/02/06 07:04:45;;;;;;;4.97;0.77;;;;;;;-149.78;100.00;50506.66;5065828;28;20040;-63
2022/02/06 07:07:10;;;;;;;2.50;0.90;;;;;;;-149.78;100.00;50487.09;5065327;28;20127;-63
2022/02/06 07:09:36;;;;;;;3.47;0.80;;;;;;;-149.78;100.00;50469.50;5058860;28;20142;-63
2022/02/06 07:12:03;;;;;;;5.13;0.70;;;;;;;-149.78;100.00;50461.66;5070226;28;20479;-64
2022/02/06 07:14:28;;;;;;;7.93;0.80;;;;;;;-149.78;100.00;50498.81;5058517;28;20426;-63
2022/02/06 07:16:54;;;;;;;5.70;1.95;;;;;;;-149.78;100.00;50479.28;5064096;28;20033;-63
2022/02/06 07:19:20;;;;;;;3.35;0.90;;;;;;;-149.78;100.00;50469.50;5041975;28;20037;-63
2022/02/06 07:21:45;;;;;;;4.10;0.98;;;;;;;-149.78;100.00;50502.75;5053395;28;20542;-64
2022/02/06 07:24:11;;;;;;;4.63;1.02;;;;;;;-149.78;100.00;50447.97;5068482;28;20067;-61
2022/02/06 07:26:39;;;;;;;8.68;1.25;;;;;;;-149.78;100.00;50518.38;5059132;28;20082;-63
2022/02/06 07:29:05;;;;;;;6.60;1.15;;;;;;;-149.78;100.00;50479.28;5062061;28;20049;-63
2022/02/06 07:31:33;;;;;;;7.82;1.00;;;;;;;-149.78;100.00;50514.47;5067579;28;20491;-64
2022/02/06 07:33:58;;;;;;;4.03;0.88;;;;;;;-149.78;100.00;50494.91;5056525;28;20033;-63
2022/02/06 07:36:24;;;;;;;3.33;0.98;;;;;;;-149.78;100.00;50506.66;5061462;28;20083;-63
2022/02/06 07:38:49;;;;;;;3.05;0.95;;;;;;;-149.78;100.00;50475.34;5050696;28;20120;-64
2022/02/06 07:41:15;;;;;;;7.50;1.20;;;;;;;-149.78;100.00;50487.09;5037248;28;20112;-61
2022/02/06 07:43:40;;;;;;;11.05;1.38;;;;;;;-149.78;100.00;50510.56;5039640;28;20075;-61
2022/02/06 07:46:11;;;;;;;3.45;1.13;;;;;;;-149.78;100.00;50475.34;5046548;28;20037;-61
2022/02/06 07:48:37;;;;;;;4.97;1.42;;;;;;;-149.78;100.00;50463.63;5042066;28;20057;-61
2022/02/06 07:51:03;;;;;;;4.25;1.27;;;;;;;-149.78;100.00;50481.22;5035088;28;20064;-61
2022/02/06 07:53:30;;;;;;;5.13;1.33;;;;;;;-149.78;100.00;50498.81;5036143;28;20037;-61
2022/02/06 07:55:55;;;;;;;6.55;1.10;;;;;;;-149.78;100.00;50465.56;5040535;28;20051;-61
2022/02/06 07:58:21;;;;;;;5.68;1.23;;;;;;;-149.78;100.00;50469.50;5037933;28;20033;-61
2022/02/06 08:00:48;;;;;;;7.78;1.20;;;;;;;-149.78;100.00;50502.75;5045799;28;20033;-61
2022/02/06 08:03:13;;;;;;;6.30;1.33;;;;;;;-149.78;100.00;50483.19;5042719;28;20094;-61
2022/02/06 08:05:39;;;;;;;8.50;1.50;;;;;;;-149.78;100.00;50502.75;5046828;28;20025;-61
2022/02/06 08:08:12;;;;;;;5.90;1.00;;;;;;;-149.78;100.00;50506.66;5041716;28;20458;-61
2022/02/06 08:10:38;;;;;;;6.75;1.30;;;;;;;-149.78;100.00;50508.59;5043238;28;20074;-61
2022/02/06 08:13:10;;;;;;;8.43;1.40;;;;;;;-149.78;100.00;50469.50;5037698;28;20033;-61
2022/02/06 08:15:36;;;;;;;9.55;1.40;;;;;;;-149.78;100.00;50487.09;5038524;28;20034;-63
2022/02/06 08:18:03;;;;;;;6.10;1.08;;;;;;;-149.78;100.00;50463.63;5043618;28;20388;-63
2022/02/06 08:20:29;;;;;;;7.50;1.08;;;;;;;-149.78;100.00;50510.56;5042634;28;20410;-63
2022/02/06 08:22:55;;;;;;;7.07;1.55;;;;;;;-149.78;100.00;50463.63;5034611;28;20136;-63
2022/02/06 08:25:21;;;;;;;5.03;1.00;;;;;;;-149.78;100.00;50502.75;5031986;28;20026;-63
2022/02/06 08:27:46;;;;;;;11.07;1.67;;;;;;;-149.78;100.00;50479.28;5043251;28;20036;-63
2022/02/06 08:30:14;;;;;;;4.93;1.05;;;;;;;-149.78;100.00;50475.34;5034773;28;20040;-62
2022/02/06 08:32:40;;;;;;;5.22;1.30;;;;;;;-149.78;100.00;50518.38;5034308;28;20052;-62
2022/02/06 08:35:06;;;;;;;6.47;1.30;;;;;;;-149.78;100.00;50500.78;5036493;28;20039;-63
2022/02/06 08:37:32;;;;;;;5.53;2.10;;;;;;;-149.78;100.00;50467.53;5036643;28;20025;-63
2022/02/06 08:40:02;;;;;;;6.40;1.15;;;;;;;-149.78;100.00;50451.88;5037843;28;20078;-63
2022/02/06 08:42:28;;;;;;;4.68;1.58;;;;;;;-149.78;100.00;50473.41;5034723;28;20075;-63
2022/02/06 08:44:53;;;;;;;5.90;1.30;;;;;;;-149.78;100.00;50473.41;5037066;28;20392;-63
2022/02/06 08:47:19;;;;;;;4.35;1.20;;;;;;;-149.78;100.00;50485.13;5038980;28;20484;-63
2022/02/06 08:49:46;;;;;;;6.22;1.15;;;;;;;-149.78;100.00;50487.09;5035025;28;20186;-64
2022/02/06 08:52:12;;;;;;;5.80;1.05;;;;;;;-149.78;100.00;50502.75;5039237;28;20036;-63
2022/02/06 08:54:39;;;;;;;3.05;0.90;;;;;;;-149.78;100.00;50498.81;5039416;28;20061;-61
2022/02/06 08:57:15;;;;;;;4.75;1.10;;;;;;;-149.78;100.00;50498.81;5040524;28;20029;-61
2022/02/06 08:59:40;;;;;;;2.25;0.80;;;;;;;-149.78;100.00;50483.19;5036202;28;20064;-61
2022/02/06 09:02:06;;;;;;;4.60;0.88;;;;;;;-149.78;100.00;50475.34;5039612;28;20159;-60
2022/02/06 09:04:32;;;;;;;4.13;0.82;;;;;;;-149.78;100.00;50498.81;5042391;28;20039;-61
2022/02/06 09:07:01;;;;;;;6.75;1.13;;;;;;;-149.78;100.00;50479.28;5041915;28;20036;-61
2022/02/06 09:09:27;;;;;;;5.30;1.10;;;;;;;-149.78;100.00;50483.19;5041959;28;20033;-61
2022/02/06 09:11:54;;;;;;;7.38;1.30;;;;;;;-149.78;100.00;50475.34;5049427;28;20065;-61
2022/02/06 09:14:22;;;;;;;6.80;1.10;;;;;;;-149.78;100.00;50489.03;5040548;28;20071;-61
2022/02/06 09:16:48;;;;;;;3.55;0.80;;;;;;;-149.78;100.00;50491.00;5040567;28;20025;-62
2022/02/06 09:19:14;;;;;;;4.38;1.00;;;;;;;-149.78;100.00;50502.75;5044989;28;20443;-61
2022/02/06 09:21:41;;;;;;;7.68;1.08;;;;;;;-149.78;100.00;50487.09;5038733;28;20480;-61
2022/02/06 09:24:08;;;;;;;5.57;1.10;;;;;;;-149.78;100.00;50459.72;5039386;28;20064;-61
2022/02/06 09:26:38;;;;;;;5.40;1.20;;;;;;;-149.78;100.00;50463.63;5046253;28;20029;-61
2022/02/06 09:29:05;;;;;;;6.28;1.50;;;;;;;-149.78;100.00;50475.34;5040426;28;20116;-61
2022/02/06 09:31:31;;;;;;;6.68;1.23;;;;;;;-149.78;100.00;50479.28;5040713;28;20125;-61
2022/02/06 09:36:23;;;;;;;7.55;1.65;;;;;;;-149.78;100.00;50491.00;5043564;28;20469;-61
2022/02/06 09:38:49;;;;;;;5.43;1.33;;;;;;;-149.78;100.00;50483.19;5035709;28;20037;-61
2022/02/06 09:41:15;;;;;;;3.72;1.13;;;;;;;-149.78;100.00;50494.91;5036861;28;20037;-61
2022/02/06 09:43:43;;;;;;;11.63;2.85;;;;;;;-149.78;100.00;50467.53;5038301;28;20048;-61
2022/02/06 09:46:13;;;;;;;10.77;1.60;;;;;;;-149.78;100.00;50479.28;5040702;28;20060;-61
2022/02/06 09:48:40;;;;;;;13.43;1.60;;;;;;;-149.78;100.00;50516.44;5046319;28;20180;-61
2022/02/06 09:51:08;;;;;;;4.75;1.05;;;;;;;-149.78;100.00;50455.81;5044267;28;20071;-61
2022/02/06 09:53:36;;;;;;;10.38;1.35;;;;;;;-149.78;100.00;50451.88;5042881;28;20112;-61
2022/02/06 09:56:08;;;;;;;12.50;2.28;;;;;;;-149.78;100.00;50514.47;5038092;28;20120;-61
2022/02/06 10:01:06;;;;;;;13.05;2.42;;;;;;;-149.78;100.00;50436.25;5038678;28;20064;-60
2022/02/06 10:03:37;;;;;;;6.38;1.42;;;;;;;-149.78;100.00;50506.66;5035572;28;20034;-62
2022/02/06 10:06:09;;;;;;;12.13;1.83;;;;;;;-149.78;100.00;50440.16;5036651;28;20029;-61
2022/02/06 10:08:40;;;;;;;13.88;1.70;;;;;;;-149.78;100.00;50455.81;5040945;28;20041;-61
2022/02/06 10:11:14;;;;;;;6.97;1.90;;;;;;;-149.78;100.00;50508.59;5040824;28;20051;-62
2022/02/06 10:13:44;;;;;;;11.95;1.80;;;;;;;-149.78;100.00;50475.34;5066297;28;20032;-62
2022/02/06 10:16:14;;;;;;;4.53;1.40;;;;;;;-149.78;100.00;50494.91;5057131;28;20399;-61
2022/02/06 10:18:41;;;;;;;13.32;1.63;;;;;;;-149.78;100.00;50518.38;5058650;28;20025;-61
2022/02/06 10:21:13;;;;;;;6.97;1.25;;;;;;;-149.78;100.00;50469.50;5060268;28;20047;-61
2022/02/06 10:23:58;;;;;;;11.35;1.70;;;;;;;-149.78;100.00;50506.66;5058681;28;20053;-60
2022/02/06 10:26:28;;;;;;;4.63;1.10;;;;;;;-149.78;100.00;50471.44;5068556;28;20035;-61
2022/02/06 10:29:21;;;;;;;5.00;1.05;;;;;;;-149.78;100.00;50491.00;5071516;28;20082;-61
2022/02/06 10:32:02;;;;;;;3.60;0.95;;;;;;;-149.78;100.00;50479.28;5071324;28;20126;-61
2022/02/06 10:34:29;;;;;;;4.60;1.48;;;;;;;-149.78;100.00;50436.25;5070438;28;20112;-61
2022/02/06 10:37:22;;;;;;;2.17;0.70;;;;;;;-149.78;100.00;50485.13;5066396;28;20036;-61
2022/02/06 10:40:02;;;;;;;5.28;1.10;;;;;;;-149.78;100.00;50498.81;5069890;28;20112;-61
2022/02/06 10:42:31;;;;;;;2.25;0.90;;;;;;;-149.78;100.00;50518.38;5069307;28;20025;-61
2022/02/06 10:45:15;;;;;;;3.00;0.82;;;;;;;-149.78;100.00;50491.00;5071113;28;20039;-61
2022/02/06 10:47:41;;;;;;;6.47;0.98;;;;;;;-149.78;100.00;50500.78;5071139;28;20085;-61
2022/02/06 10:50:13;;;;;;;6.38;0.90;;;;;;;-149.78;100.00;50518.38;5066815;28;20048;-61
2022/02/06 10:52:39;;;;;;;6.07;0.90;;;;;;;-149.78;100.00;50475.34;5044352;28;20381;-61
2022/02/06 10:55:06;;;;;;;8.48;1.15;;;;;;;-149.78;100.00;50494.91;5056964;28;20550;-61
2022/02/06 10:57:32;;;;;;;9.32;1.23;;;;;;;-149.78;100.00;50485.13;5056953;28;20032;-61
2022/02/06 11:00:00;;;;;;;4.30;1.40;;;;;;;-149.78;100.00;50491.00;5058595;28;20040;-63
2022/02/06 11:02:33;;;;;;;6.95;2.00;;;;;;;-149.78;100.00;50522.28;5057871;28;20029;-63
2022/02/06 11:05:16;;;;;;;9.55;2.38;;;;;;;-149.78;100.00;50459.72;5056466;28;20033;-61
2022/02/06 11:07:56;;;;;;;4.60;1.95;;;;;;;-149.78;100.00;50487.09;5056157;28;20040;-61
2022/02/06 11:10:24;;;;;;;9.98;1.90;;;;;;;-149.78;100.00;50479.28;5066297;28;20044;-61
2022/02/06 11:12:55;;;;;;;7.70;1.35;;;;;;;-149.78;100.00;50479.28;5053924;28;20048;-61
2022/02/06 11:15:24;;;;;;;6.20;0.98;;;;;;;-149.78;100.00;50447.97;5036464;28;20554;-61
2022/02/06 11:18:21;;;;;;;5.25;1.33;;;;;;;-149.78;100.00;50430.38;5059454;28;20356;-61
2022/02/06 11:21:00;;;;;;;9.98;1.67;;;;;;;-149.78;100.00;50498.81;5042650;28;20060;-61
2022/02/06 11:23:41;;;;;;;9.60;1.55;;;;;;;-149.78;100.00;50485.13;5045112;28;20128;-61
2022/02/06 11:26:17;;;;;;;11.70;1.88;;;;;;;-149.78;100.00;50475.34;5046421;28;20040;-61
2022/02/06 11:28:42;;;;;;;18.83;2.13;;;;;;;-149.78;100.00;50479.28;5032143;28;20112;-61
2022/02/06 11:31:08;;;;;;;10.40;1.73;;;;;;;-149.78;100.00;50506.66;5036631;28;20032;-61
2022/02/06 11:33:35;;;;;;;6.70;1.60;;;;;;;-149.78;100.00;50481.22;5063170;28;20041;-61
2022/02/06 11:36:12;;;;;;;7.63;1.30;;;;;;;-149.78;100.00;50502.75;5053367;28;20029;-61
2022/02/06 11:45:01;;;;;;;9.50;2.00;;;;;;;-149.78;100.00;50487.09;5055421;28;20040;-61
2022/02/06 11:47:32;;;;;;;10.02;1.88;;;;;;;-149.78;100.00;50487.09;5044661;28;20511;-61
2022/02/06 11:50:06;;;;;;;7.55;1.60;;;;;;;-149.78;100.00;50520.34;5044052;28;20033;-61
2022/02/06 11:52:51;;;;;;;8.05;1.67;;;;;;;-149.78;100.00;50489.03;5039619;28;20068;-61
2022/02/06 11:55:36;;;;;;;12.55;2.00;;;;;;;-149.78;100.00;50498.81;5051934;28;20078;-62
2022/02/06 11:58:26;;;;;;;10.45;1.83;;;;;;;-149.78;100.00;50526.22;5054264;28;20056;-60
2022/02/06 12:01:21;;;;;;;10.45;2.15;;;;;;;-149.78;100.00;50475.34;5035117;28;20041;-59
2022/02/06 12:03:47;;;;;;;13.75;2.78;;;;;;;-149.78;100.00;50522.28;5031829;28;20041;-60
2022/02/06 12:06:14;;;;;;;15.63;2.53;;;;;;;-149.78;100.00;50518.38;5039319;28;20028;-60
2022/02/06 12:09:04;;;;;;;18.50;1.75;;;;;;;-149.78;100.00;50473.41;5041186;28;20033;-60
2022/02/06 12:11:31;;;;;;;16.52;2.28;;;;;;;-149.78;100.00;50483.19;5033460;28;20025;-60
2022/02/06 12:14:07;;;;;;;17.38;2.88;;;;;;;-149.78;100.00;50494.91;5032853;28;20550;-60
2022/02/06 12:16:48;;;;;;;9.32;2.35;;;;;;;-149.78;100.00;50514.47;5033653;28;20033;-60
2022/02/06 12:19:29;;;;;;;8.67;1.50;;;;;;;-149.78;100.00;50489.03;5037337;28;20037;-60
2022/02/06 12:21:56;;;;;;;5.50;1.00;;;;;;;-149.78;100.00;50491.00;5034806;28;20424;-59
2022/02/06 12:24:41;;;;;;;7.43;1.33;;;;;;;-149.78;100.00;50508.59;5032061;28;20053;-60
2022/02/06 12:27:27;;;;;;;5.63;1.20;;;;;;;-149.78;100.00;50514.47;5034614;28;20485;-63
2022/02/06 12:30:00;;;;;;;5.65;1.40;;;;;;;-149.78;100.00;50526.22;5035486;28;20095;-62
2022/02/06 12:32:29;;;;;;;6.00;1.45;;;;;;;-149.78;100.00;50522.28;5038542;28;20033;-62
2022/02/06 12:37:40;;;;;;;14.27;2.03;;;;;;;-149.78;100.00;50526.22;5032200;28;20029;-62
2022/02/06 12:40:15;;;;;;;12.52;1.98;;;;;;;-149.78;100.00;50506.66;5040711;28;20469;-63
2022/02/06 12:42:43;;;;;;;6.05;1.20;;;;;;;-149.78;100.00;50498.81;5018441;28;20078;-62
2022/02/06 12:45:18;;;;;;;10.82;1.25;;;;;;;-149.78;100.00;50537.94;5044188;28;20464;-62
2022/02/06 12:47:49;;;;;;;12.70;1.30;;;;;;;-149.78;100.00;50485.13;5048530;28;20037;-62
2022/02/06 12:50:19;;;;;;;16.23;1.75;;;;;;;-149.78;100.00;50498.81;5041434;28;20041;-62
2022/02/06 12:52:46;;;;;;;13.73;1.88;;;;;;;-149.78;100.00;50510.56;5041284;28;20033;-63
2022/02/06 12:55:14;;;;;;;13.48;2.38;;;;;;;-149.78;100.00;50520.34;5042301;28;20040;-62
2022/02/06 12:57:48;;;;;;;16.55;2.40;;;;;;;-149.78;100.00;50518.38;5037266;28;20030;-62
2022/02/06 13:00:38;;;;;;;19.20;2.80;;;;;;;-149.78;100.00;50485.13;5039512;28;20026;-63
2022/02/06 13:03:41;;;;;;;14.43;3.15;;;;;;;-149.78;100.00;50491.00;5036908;28;20442;-62
2022/02/06 13:06:18;;;;;;;16.17;2.40;;;;;;;-149.78;100.00;50524.25;5037845;28;20050;-63
2022/02/06 13:08:43;;;;;;;10.30;2.60;;;;;;;-149.78;100.00;50491.00;5036452;28;20033;-63
2022/02/06 13:11:16;;;;;;;18.65;2.63;;;;;;;-149.78;100.00;50498.81;5035803;28;20052;-62
2022/02/06 13:14:06;;;;;;;7.85;2.17;;;;;;;-149.78;100.00;50502.75;5038317;28;20033;-63
2022/02/06 13:30:02;;;;;;;9.00;1.52;;;;;;;-149.78;100.00;50491.00;5038200;28;20048;-63
2022/02/06 13:35:25;;;;;;;6.10;1.27;;;;;;;-149.78;100.00;50494.91;5040219;28;20384;-63
2022/02/06 13:38:01;;;;;;;11.75;1.60;;;;;;;-149.78;100.00;50506.66;5037875;28;20033;-64
2022/02/06 13:40:31;;;;;;;15.38;3.78;;;;;;;-149.78;100.00;50518.38;5046307;28;20494;-64
2022/02/06 13:43:07;;;;;;;11.82;2.45;;;;;;;-149.78;100.00;50502.75;5038445;28;20630;-64
2022/02/06 13:45:35;;;;;;;10.38;2.08;;;;;;;-149.78;100.00;50479.28;5043714;28;20033;-61
2022/02/06 13:48:02;;;;;;;14.07;2.13;;;;;;;-149.78;100.00;50494.91;5038754;28;20040;-62
2022/02/06 13:50:29;;;;;;;10.23;2.08;;;;;;;-149.78;100.00;50487.09;5041997;28;20029;-62
2022/02/06 13:53:13;;;;;;;12.10;2.30;;;;;;;-149.78;100.00;50508.59;5046102;28;20029;-62
2022/02/06 13:55:51;;;;;;;22.00;4.22;;;;;;;-149.78;100.00;50494.91;5053426;28;20100;-62
2022/02/06 13:58:28;;;;;;;20.80;2.90;;;;;;;-149.78;100.00;50522.28;5039843;28;20028;-62
2022/02/06 14:01:01;;;;;;;8.10;2.13;;;;;;;-149.78;100.00;50522.28;5039817;28;20037;-62
2022/02/06 14:03:46;;;;;;;13.85;2.05;;;;;;;-149.78;100.00;50520.34;5038060;28;20033;-61
2022/02/06 14:06:15;;;;;;;19.40;2.25;;;;;;;-149.78;100.00;50491.00;5044318;28;20024;-62
2022/02/06 14:09:09;;;;;;;16.15;2.28;;;;;;;-149.78;100.00;50514.47;5059619;28;20041;-62
2022/02/06 14:11:35;;;;;;;14.15;1.83;;;;;;;-149.78;100.00;50487.09;5042607;28;20369;-62